createdAt,value
2022-08-21T00:00:51.845Z,4.20
2022-08-21T00:04:57.730Z,3.53
2022-08-21T00:09:06.118Z,3.72
2022-08-21T00:13:12.298Z,2.42
2022-08-21T00:17:15.405Z,2.47
2022-08-21T00:21:19.456Z,2.75
2022-08-21T00:25:25.963Z,2.75
2022-08-21T00:29:30.785Z,2.90
2022-08-21T00:33:35.347Z,5.43
2022-08-21T00:37:38.995Z,3.60
2022-08-21T00:41:42.471Z,2.03
2022-08-21T00:45:47.615Z,5.20
2022-08-21T00:49:51.278Z,4.03
2022-08-21T00:53:58.688Z,7.97
2022-08-21T00:58:03.472Z,6.38
2022-08-21T01:02:10.509Z,4.13
2022-08-21T01:06:14.175Z,4.00
2022-08-21T01:10:23.867Z,6.70
2022-08-21T01:14:28.566Z,6.15
2022-08-21T01:18:33.940Z,9.38
2022-08-21T01:22:39.060Z,6.10
2022-08-21T01:26:46.463Z,4.60
2022-08-21T01:30:51.193Z,7.88
2022-08-21T01:34:55.216Z,5.30
2022-08-21T01:39:00.842Z,10.00
2022-08-21T01:43:04.129Z,5.18
2022-08-21T01:47:13.831Z,5.47
2022-08-21T01:51:17.379Z,5.10
2022-08-21T01:55:22.505Z,5.40
2022-08-21T01:59:27.008Z,5.20
2022-08-21T02:03:35.751Z,6.35
2022-08-21T02:07:41.053Z,6.05
2022-08-21T02:11:46.222Z,5.70
2022-08-21T02:15:50.174Z,7.05
2022-08-21T02:19:53.781Z,6.00
2022-08-21T02:23:57.197Z,10.63
2022-08-21T02:28:05.954Z,8.75
2022-08-21T02:32:09.561Z,5.43
2022-08-21T02:36:13.805Z,4.85
2022-08-21T02:40:19.258Z,7.80
2022-08-21T02:44:30.114Z,4.53
2022-08-21T02:48:38.756Z,5.53
2022-08-21T02:52:41.871Z,6.25
2022-08-21T02:56:48.444Z,9.25
2022-08-21T03:00:53.765Z,7.20
2022-08-21T03:04:57.658Z,6.25
2022-08-21T03:09:02.956Z,6.57
2022-08-21T03:13:06.064Z,5.03
2022-08-21T03:17:14.012Z,5.22
2022-08-21T03:21:20.409Z,6.55
2022-08-21T03:25:39.641Z,6.90
2022-08-21T03:29:44.721Z,6.35
2022-08-21T03:33:49.746Z,6.85
2022-08-21T03:37:53.426Z,5.95
2022-08-21T03:41:57.150Z,5.93
2022-08-21T03:46:00.752Z,4.80
2022-08-21T03:50:06.051Z,6.32
2022-08-21T03:54:09.763Z,5.10
2022-08-21T03:58:16.140Z,5.78
2022-08-21T04:02:23.411Z,6.25
2022-08-21T04:06:28.773Z,4.57
2022-08-21T04:10:36.184Z,3.97
2022-08-21T04:14:39.791Z,6.45
2022-08-21T04:18:44.724Z,5.43
2022-08-21T04:22:49.912Z,5.40
2022-08-21T04:26:53.429Z,9.70
2022-08-21T04:30:57.243Z,9.38
2022-08-21T04:35:02.670Z,9.32
2022-08-21T04:39:07.555Z,5.72
2022-08-21T04:43:14.634Z,5.15
2022-08-21T04:47:18.237Z,5.55
2022-08-21T04:51:27.059Z,8.10
2022-08-21T04:55:35.625Z,4.90
2022-08-21T04:59:43.775Z,7.40
2022-08-21T05:03:48.360Z,5.55
2022-08-21T05:07:52.282Z,10.02
2022-08-21T05:26:46.024Z,4.93
2022-08-21T05:30:50.075Z,5.55
2022-08-21T05:34:53.877Z,5.38
2022-08-21T05:38:57.494Z,5.95
2022-08-21T05:43:02.994Z,5.68
2022-08-21T05:47:08.267Z,5.07
2022-08-21T05:51:14.149Z,5.28
2022-08-21T05:55:17.298Z,5.70
2022-08-21T05:59:22.468Z,9.35
2022-08-21T06:03:28.624Z,8.68
2022-08-21T06:07:31.895Z,7.13
2022-08-21T06:11:36.176Z,9.52
2022-08-21T06:15:41.260Z,7.95
2022-08-21T06:19:44.387Z,9.52
2022-08-21T06:23:49.742Z,4.60
2022-08-21T06:27:53.678Z,12.43
2022-08-21T06:31:58.831Z,7.65
2022-08-21T06:36:02.488Z,10.25
2022-08-21T06:40:12.453Z,12.00
2022-08-21T06:44:20.658Z,8.38
2022-08-21T06:48:25.289Z,9.73
2022-08-21T06:52:29.167Z,9.35
2022-08-21T06:56:32.962Z,11.35
2022-08-21T07:00:37.326Z,11.70
2022-08-21T07:04:42.367Z,12.00
2022-08-21T07:08:46.062Z,12.35
2022-08-21T07:12:49.813Z,19.25
2022-08-21T07:16:54.405Z,12.80
2022-08-21T07:20:59.789Z,21.95
2022-08-21T07:25:03.570Z,11.60
2022-08-21T07:29:07.251Z,14.00
2022-08-21T07:33:10.999Z,16.40
2022-08-21T07:37:15.815Z,15.82
2022-08-21T07:41:22.891Z,17.33
2022-08-21T07:45:27.793Z,23.25
2022-08-21T07:49:31.456Z,12.25
2022-08-21T07:53:36.830Z,15.15
2022-08-21T07:57:40.037Z,19.42
2022-08-21T08:01:43.773Z,17.52
2022-08-21T08:05:47.702Z,17.17
2022-08-21T08:09:52.280Z,11.93
2022-08-21T08:13:55.997Z,15.25
2022-08-21T08:17:59.636Z,14.07
2022-08-21T08:22:02.978Z,14.85
2022-08-21T08:26:08.312Z,17.80
2022-08-21T08:30:14.737Z,16.17
2022-08-21T08:34:23.517Z,19.30
2022-08-21T08:38:29.478Z,18.92
2022-08-21T08:42:36.437Z,14.70
2022-08-21T08:46:46.214Z,17.10
2022-08-21T08:50:54.912Z,24.13
2022-08-21T08:55:04.732Z,18.88
2022-08-21T08:59:17.894Z,18.90
2022-08-21T09:03:23.320Z,16.25
2022-08-21T09:07:40.835Z,17.58
2022-08-21T09:11:51.147Z,17.98
2022-08-21T09:16:04.784Z,15.75
2022-08-21T09:20:19.850Z,12.32
2022-08-21T09:24:34.180Z,12.40
2022-08-21T09:28:38.775Z,13.00
2022-08-21T09:32:43.965Z,16.02
2022-08-21T09:36:50.083Z,15.90
2022-08-21T09:41:00.452Z,13.60
2022-08-21T09:45:15.466Z,9.52
2022-08-21T09:49:30.041Z,12.13
2022-08-21T09:53:35.986Z,11.90
2022-08-21T09:57:50.670Z,15.85
2022-08-21T10:01:56.339Z,14.85
2022-08-21T10:06:03.520Z,13.38
2022-08-21T10:10:18.069Z,13.45
2022-08-21T10:14:45.526Z,13.70
2022-08-21T10:18:58.957Z,10.88
2022-08-21T10:23:19.508Z,9.38
2022-08-21T10:27:34.211Z,14.48
2022-08-21T10:31:46.721Z,11.68
2022-08-21T10:36:07.378Z,15.40
2022-08-21T10:40:32.298Z,10.10
2022-08-21T10:44:42.517Z,8.98
2022-08-21T10:48:53.084Z,9.05
2022-08-21T10:53:14.047Z,16.20
2022-08-21T10:57:29.861Z,7.47
2022-08-21T11:01:47.562Z,8.57
2022-08-21T11:05:55.142Z,11.90
2022-08-21T11:10:02.911Z,10.70
2022-08-21T11:14:21.950Z,14.27
2022-08-21T11:18:30.174Z,7.20
2022-08-21T11:22:40.510Z,1.73
2022-08-21T11:26:51.324Z,4.22
2022-08-21T11:31:20.235Z,2.70
2022-08-21T11:35:34.732Z,2.13
2022-08-21T11:39:46.064Z,1.45
2022-08-21T11:43:52.063Z,3.22
2022-08-21T11:48:06.254Z,1.30
2022-08-21T11:52:19.389Z,1.90
2022-08-21T11:56:27.477Z,2.55
2022-08-21T12:00:35.666Z,1.73
2022-08-21T12:04:51.859Z,1.33
2022-08-21T12:09:02.303Z,1.20
2022-08-21T12:13:12.562Z,3.75
2022-08-21T12:17:25.137Z,1.80
2022-08-21T12:21:30.538Z,1.90
2022-08-21T12:25:41.910Z,0.98
2022-08-21T12:29:50.210Z,2.33
2022-08-21T12:33:58.917Z,0.50
2022-08-21T12:38:11.643Z,1.48
2022-08-21T12:42:20.794Z,3.33
2022-08-21T12:46:36.601Z,1.15
2022-08-21T12:50:48.902Z,2.00
2022-08-21T12:59:01.377Z,1.98
2022-08-21T13:03:05.065Z,2.45
2022-08-21T13:07:12.251Z,2.47
2022-08-21T13:11:32.415Z,1.95
2022-08-21T13:15:39.946Z,3.00
2022-08-21T13:19:43.774Z,2.90
2022-08-21T13:23:49.110Z,2.22
2022-08-21T13:28:12.932Z,2.63
2022-08-21T13:32:27.530Z,3.00
2022-08-21T13:36:36.763Z,5.35
2022-08-21T13:40:48.595Z,1.92
2022-08-21T13:44:56.125Z,5.40
2022-08-21T13:49:01.827Z,6.30
2022-08-21T13:53:09.988Z,5.50
2022-08-21T13:57:21.085Z,2.55
2022-08-21T14:01:29.409Z,3.85
2022-08-21T14:05:36.790Z,2.78
2022-08-21T14:09:45.633Z,4.05
2022-08-21T14:13:53.845Z,3.00
2022-08-21T14:18:11.087Z,2.90
2022-08-21T14:22:33.651Z,3.80
2022-08-21T14:26:40.369Z,1.85
2022-08-21T14:30:45.729Z,4.63
2022-08-21T14:34:50.571Z,1.60
2022-08-21T14:38:54.165Z,3.17
2022-08-21T14:42:58.984Z,3.00
2022-08-21T14:47:02.790Z,4.00
2022-08-21T14:51:07.781Z,2.35
2022-08-21T14:55:15.412Z,3.05
2022-08-21T14:59:21.050Z,3.55
2022-08-21T15:03:24.658Z,3.60
2022-08-21T15:07:29.896Z,2.47
2022-08-21T15:11:41.351Z,4.53
2022-08-21T15:15:49.137Z,5.10
2022-08-21T15:19:52.781Z,4.88
2022-08-21T15:23:57.287Z,3.90
2022-08-21T15:28:01.805Z,4.97
2022-08-21T15:32:19.493Z,4.32
2022-08-21T15:36:23.071Z,7.35
2022-08-21T15:40:30.128Z,4.82
2022-08-21T15:44:34.128Z,3.28
2022-08-21T15:48:38.015Z,4.55
2022-08-21T15:52:42.275Z,4.03
2022-08-21T15:56:51.655Z,4.38
2022-08-21T16:00:55.621Z,5.57
2022-08-21T16:04:59.427Z,4.25
2022-08-21T16:09:03.582Z,3.50
2022-08-21T16:13:15.724Z,2.80
2022-08-21T16:17:19.754Z,3.67
2022-08-21T16:21:22.937Z,8.10
2022-08-21T16:25:27.080Z,3.33
2022-08-21T16:29:36.093Z,4.53
2022-08-21T16:33:44.204Z,3.35
2022-08-21T16:37:52.792Z,3.45
2022-08-21T16:41:57.151Z,3.22
2022-08-21T16:46:03.312Z,4.07
2022-08-21T16:50:08.336Z,4.80
2022-08-21T16:54:12.303Z,4.45
2022-08-21T16:58:19.392Z,4.93
2022-08-21T17:02:30.290Z,3.70
2022-08-21T17:06:34.710Z,4.22
2022-08-21T17:10:39.187Z,4.05
2022-08-21T17:14:42.965Z,3.28
2022-08-21T17:18:51.257Z,3.22
2022-08-21T17:22:58.164Z,6.15
2022-08-21T17:27:05.153Z,3.33
2022-08-21T17:31:11.449Z,4.10
2022-08-21T17:35:16.682Z,4.30
2022-08-21T17:39:22.106Z,3.67
2022-08-21T17:43:27.562Z,3.22
2022-08-21T17:47:31.359Z,2.78
2022-08-21T17:51:37.379Z,3.25
2022-08-21T17:55:42.232Z,7.05
2022-08-21T17:59:45.601Z,3.42
2022-08-21T18:03:52.502Z,2.42
2022-08-21T18:07:59.083Z,4.20
2022-08-21T18:12:02.784Z,3.42
2022-08-21T18:16:07.855Z,4.22
2022-08-21T18:20:12.066Z,7.20
2022-08-21T18:24:18.546Z,4.53
2022-08-21T18:28:26.141Z,5.00
2022-08-21T18:32:32.412Z,4.13
2022-08-21T18:36:36.095Z,6.00
2022-08-21T18:40:53.812Z,4.07
2022-08-21T18:45:02.562Z,7.25
2022-08-21T18:49:09.150Z,4.90
2022-08-21T18:53:24.034Z,5.10
2022-08-21T18:57:40.000Z,4.90
2022-08-21T19:01:44.543Z,7.03
2022-08-21T19:05:52.246Z,3.83
2022-08-21T19:14:22.773Z,6.18
2022-08-21T19:18:29.125Z,5.00
2022-08-21T19:22:33.547Z,4.45
2022-08-21T19:26:39.241Z,6.95
2022-08-21T19:30:49.342Z,5.25
2022-08-21T19:34:53.595Z,4.18
2022-08-21T19:38:57.309Z,5.35
2022-08-21T19:43:03.110Z,10.52
2022-08-21T19:47:19.419Z,6.20
2022-08-21T19:51:24.322Z,4.50
2022-08-21T19:55:31.996Z,4.75
2022-08-21T19:59:40.147Z,8.85
2022-08-21T20:03:54.512Z,3.58
2022-08-21T20:07:59.571Z,6.82
2022-08-21T20:16:31.661Z,5.05
2022-08-21T20:20:38.158Z,5.05
2022-08-21T20:24:43.221Z,3.05
2022-08-21T20:28:50.573Z,8.85
2022-08-21T20:32:59.241Z,7.47
2022-08-21T20:41:30.300Z,7.65
2022-08-21T20:45:38.121Z,8.63
2022-08-21T20:49:49.293Z,8.82
2022-08-21T20:54:06.383Z,10.40
2022-08-21T20:58:17.419Z,8.10
2022-08-21T21:02:34.778Z,5.55
2022-08-21T21:06:41.125Z,8.15
2022-08-21T21:10:54.922Z,5.88
2022-08-21T21:15:06.233Z,9.43
2022-08-21T21:19:20.866Z,9.85
2022-08-21T21:23:31.732Z,10.68
2022-08-21T21:27:42.568Z,8.20
2022-08-21T21:31:56.273Z,7.10
2022-08-21T21:40:46.577Z,6.50
2022-08-21T21:45:13.853Z,3.50
2022-08-21T21:49:36.421Z,11.00
2022-08-21T21:53:52.229Z,7.45
2022-08-21T21:58:10.550Z,10.02
2022-08-21T22:02:34.894Z,7.18
2022-08-21T22:06:48.563Z,8.60
2022-08-21T22:11:02.335Z,7.90
2022-08-21T22:15:12.719Z,9.68
2022-08-21T22:19:37.180Z,7.85
2022-08-21T22:23:47.628Z,7.20
2022-08-21T22:27:58.715Z,11.13
2022-08-21T22:32:05.302Z,7.38
2022-08-21T22:36:21.126Z,10.25
2022-08-21T22:40:29.075Z,8.05
2022-08-21T22:44:32.226Z,7.38
2022-08-21T22:48:39.651Z,9.23
2022-08-21T22:52:56.430Z,10.98
2022-08-21T22:57:02.813Z,8.38
2022-08-21T23:01:13.942Z,6.35
2022-08-21T23:05:21.714Z,9.05
2022-08-21T23:09:36.229Z,12.32
2022-08-21T23:13:44.494Z,9.55
2022-08-21T23:17:56.460Z,8.02
2022-08-21T23:22:01.967Z,11.33
2022-08-21T23:26:22.830Z,7.68
2022-08-21T23:30:41.747Z,8.10
2022-08-21T23:34:52.025Z,7.63
2022-08-21T23:39:13.792Z,7.75
2022-08-21T23:43:28.467Z,10.25
2022-08-21T23:52:17.416Z,11.45
2022-08-21T23:56:33.878Z,9.65
